Time;durP1;ratioP1;P1;durP2;ratioP2;P2;SDS_P1;SDS_P2;PMS_P1;PMS_P2;Temp;Humidity;BMP_temperature;BMP_pressure;BME280_temperature;BME280_humidity;BME280_pressure;Samples;Min_cycle;Max_cycle;Signal;HPM_P1;HPM_P2
2024/02/20 00:05:23;;;;;;;29.88;7.47;;;;;;;6.23;96.24;102149.13;5056679;28;20513;-82
2024/02/20 00:08:02;;;;;;;30.90;7.07;;;;;;;6.22;96.21;102147.41;5063560;28;20060;-83
2024/02/20 00:10:35;;;;;;;32.80;7.88;;;;;;;6.16;96.75;102146.81;5050010;28;20495;-83
2024/02/20 00:13:24;;;;;;;32.08;7.32;;;;;;;6.15;96.79;102164.38;5052496;28;20061;-83
2024/02/20 00:15:51;;;;;;;26.60;7.07;;;;;;;6.06;96.79;102163.00;5062173;28;20060;-85
2024/02/20 00:18:31;;;;;;;30.25;7.78;;;;;;;6.09;96.74;102162.03;5064605;28;20080;-82
2024/02/20 00:21:01;;;;;;;30.23;6.82;;;;;;;6.06;96.69;102165.63;5050520;28;20084;-84
2024/02/20 00:23:38;;;;;;;34.00;7.97;;;;;;;5.99;96.76;102166.84;5055186;28;20060;-84
2024/02/20 00:26:39;;;;;;;31.65;7.53;;;;;;;6.01;96.91;102167.59;5061715;28;20052;-82
2024/02/20 00:29:20;;;;;;;30.90;7.13;;;;;;;6.02;96.90;102169.31;5062193;28;20053;-82
2024/02/20 00:32:12;;;;;;;29.45;7.85;;;;;;;6.03;96.37;102178.06;5050288;28;20189;-83
2024/02/20 00:34:50;;;;;;;30.13;8.45;;;;;;;5.95;96.55;102181.03;5063683;28;20049;-85
2024/02/20 00:37:34;;;;;;;27.85;6.82;;;;;;;5.89;96.61;102183.84;5054128;28;20049;-82
2024/02/20 00:40:03;;;;;;;27.95;6.32;;;;;;;5.74;97.86;102182.75;5059498;28;20071;-81
2024/02/20 00:42:45;;;;;;;33.85;7.65;;;;;;;5.62;98.48;102185.88;5060127;28;20075;-83
2024/02/20 00:45:21;;;;;;;30.38;6.93;;;;;;;5.60;97.95;102189.50;5050635;28;20128;-83
2024/02/20 00:48:19;;;;;;;32.33;7.15;;;;;;;5.57;98.45;102199.19;5057955;28;20064;-81
2024/02/20 00:51:16;;;;;;;31.15;7.05;;;;;;;5.56;98.35;102194.88;5060843;28;20128;-82
2024/02/20 00:54:04;;;;;;;31.50;6.80;;;;;;;5.53;98.57;102197.63;5060945;28;20060;-82
2024/02/20 00:56:42;;;;;;;26.08;6.57;;;;;;;5.49;98.83;102193.44;5061387;28;20053;-81
2024/02/20 00:59:22;;;;;;;25.92;7.15;;;;;;;5.49;98.68;102192.56;5059559;28;20052;-80
2024/02/20 01:01:51;;;;;;;33.17;7.03;;;;;;;5.50;98.68;102196.91;5052919;28;20049;-83
2024/02/20 01:04:21;;;;;;;28.15;6.80;;;;;;;5.40;98.34;102196.41;5062878;28;20049;-82
2024/02/20 01:06:49;;;;;;;30.50;6.95;;;;;;;5.35;98.56;102190.50;5068681;28;20048;-82
2024/02/20 01:09:15;;;;;;;20.02;6.07;;;;;;;5.33;99.06;102194.97;5054019;28;20053;-82
2024/02/20 01:11:43;;;;;;;28.63;6.32;;;;;;;5.29;99.22;102203.88;5069196;28;20104;-80
2024/02/20 01:14:11;;;;;;;23.88;7.28;;;;;;;5.23;99.11;102199.75;5068932;28;20046;-81
2024/02/20 01:16:39;;;;;;;32.50;7.35;;;;;;;5.13;99.27;102203.63;5053856;28;20049;-81
2024/02/20 01:19:08;;;;;;;35.00;6.90;;;;;;;5.06;99.96;102216.13;5071410;28;20104;-80
2024/02/20 01:21:35;;;;;;;27.88;8.38;;;;;;;5.15;100.00;102214.06;5072410;28;20048;-80
2024/02/20 01:24:02;;;;;;;30.13;6.25;;;;;;;5.25;99.81;102212.78;5063641;28;20053;-83
2024/02/20 01:26:30;;;;;;;27.45;7.25;;;;;;;5.20;100.00;102212.13;5072423;28;20056;-82
2024/02/20 01:28:57;;;;;;;31.80;6.70;;;;;;;5.24;99.66;102216.34;5072587;28;20499;-81
2024/02/20 01:31:28;;;;;;;20.88;6.38;;;;;;;5.26;99.76;102215.34;5068031;28;20114;-84
2024/02/20 01:34:07;;;;;;;33.80;7.00;;;;;;;5.31;100.00;102215.16;5057650;28;20053;-82
2024/02/20 01:36:37;;;;;;;34.92;6.78;;;;;;;5.31;100.00;102209.91;5046958;28;20073;-82
2024/02/20 01:39:09;;;;;;;28.90;6.47;;;;;;;5.34;100.00;102207.16;5049173;28;20053;-83
2024/02/20 01:41:43;;;;;;;28.45;8.48;;;;;;;5.39;100.00;102204.34;5057236;28;20388;-82
2024/02/20 01:44:21;;;;;;;33.05;8.80;;;;;;;5.40;100.00;102217.41;5058448;28;20048;-82
2024/02/20 01:46:54;;;;;;;28.75;8.63;;;;;;;5.40;98.83;102201.66;5061303;28;20057;-81
2024/02/20 01:49:27;;;;;;;22.13;6.22;;;;;;;5.39;100.00;102206.97;5061144;28;20056;-82
2024/02/20 01:52:11;;;;;;;;;;;;;;;;;;;;;
2024/02/20 01:55:01;;;;;;;26.15;6.50;;;;;;;5.37;99.98;102212.31;5053425;28;20072;-81
2024/02/20 01:57:44;;;;;;;26.90;6.40;;;;;;;5.38;99.84;102214.00;5047067;28;20061;-83
2024/02/20 02:00:25;;;;;;;29.80;6.18;;;;;;;5.37;99.68;102212.31;5047994;28;20080;-82
2024/02/20 02:03:22;;;;;;;22.42;6.85;;;;;;;5.35;99.98;102211.50;5059289;28;20072;-82
2024/02/20 02:06:03;;;;;;;30.60;6.88;;;;;;;5.40;99.80;102212.16;5049402;28;20064;-81
2024/02/20 02:09:14;;;;;;;26.27;5.72;;;;;;;5.35;99.77;102211.50;5083122;22;20085;-83
2024/02/20 02:12:29;;;;;;;33.08;7.97;;;;;;;5.35;99.72;102208.88;5041921;28;20056;-82
2024/02/20 02:17:59;;;;;;;30.92;9.20;;;;;;;5.48;100.00;102212.72;5033841;28;20041;-81
2024/02/20 02:20:40;;;;;;;39.13;11.77;;;;;;;5.52;100.00;102211.69;5040836;28;20055;-80
2024/02/20 02:23:53;;;;;;;40.65;11.40;;;;;;;5.57;100.00;102214.97;5060346;28;20081;-81
2024/02/20 02:26:27;;;;;;;32.42;10.57;;;;;;;5.69;100.00;102223.28;5066269;28;20087;-82
2024/02/20 02:29:02;;;;;;;37.83;10.93;;;;;;;5.77;100.00;102214.16;5072086;28;20052;-83
2024/02/20 02:31:45;;;;;;;42.45;10.82;;;;;;;5.69;100.00;102213.63;5060956;28;20045;-81
2024/02/20 02:34:36;;;;;;;36.15;10.35;;;;;;;5.81;99.80;102214.88;5060568;28;20075;-81
2024/02/20 02:37:10;;;;;;;38.28;9.55;;;;;;;5.66;100.00;102213.72;5076981;28;20048;-82
2024/02/20 02:39:40;;;;;;;34.90;10.02;;;;;;;5.68;100.00;102222.41;5069360;28;20065;-82
2024/02/20 02:42:17;;;;;;;42.22;10.60;;;;;;;5.68;100.00;102222.41;5071981;28;20040;-82
2024/02/20 02:44:51;;;;;;;37.25;12.02;;;;;;;5.62;100.00;102221.78;5073819;28;20084;-81
2024/02/20 02:50:05;;;;;;;37.85;12.48;;;;;;;5.58;100.00;102227.19;5077426;28;20048;-81
2024/02/20 02:52:34;;;;;;;39.53;11.93;;;;;;;5.67;100.00;102227.72;5061969;28;20095;-81
2024/02/20 02:55:10;;;;;;;36.55;12.05;;;;;;;5.66;100.00;102223.38;5053934;28;20045;-81
2024/02/20 02:57:46;;;;;;;44.97;12.23;;;;;;;5.65;100.00;102230.41;5073486;28;20106;-83
2024/02/20 03:00:19;;;;;;;33.42;11.68;;;;;;;5.56;100.00;102234.25;5081808;28;20435;-83
2024/02/20 03:02:48;;;;;;;45.60;12.25;;;;;;;5.58;100.00;102231.56;5054938;28;20115;-83
2024/02/20 03:05:19;;;;;;;38.15;12.80;;;;;;;5.61;100.00;102233.22;5066321;28;20052;-80
2024/02/20 03:07:51;;;;;;;38.30;12.07;;;;;;;5.57;100.00;102229.88;5067750;28;20487;-82
2024/02/20 03:10:21;;;;;;;32.03;12.80;;;;;;;5.52;100.00;102232.69;5060565;28;20053;-82
2024/02/20 03:12:52;;;;;;;33.65;12.40;;;;;;;5.56;100.00;102233.41;5059333;28;20384;-81
2024/02/20 03:15:19;;;;;;;43.22;12.13;;;;;;;5.50;100.00;102237.16;5059784;28;20495;-81
2024/02/20 03:17:50;;;;;;;41.20;14.07;;;;;;;5.55;100.00;102237.81;5060189;28;20495;-82
2024/02/20 03:20:21;;;;;;;45.40;14.35;;;;;;;5.62;100.00;102241.03;5067917;28;20057;-82
2024/02/20 03:22:49;;;;;;;37.97;12.60;;;;;;;5.58;100.00;102242.94;5058445;28;20072;-84
2024/02/20 03:25:43;;;;;;;40.20;13.40;;;;;;;5.54;100.00;102244.00;5040212;28;20046;-82
2024/02/20 03:28:13;;;;;;;44.20;13.35;;;;;;;5.57;100.00;102238.59;5058377;28;20053;-82
2024/02/20 03:30:42;;;;;;;47.35;16.08;;;;;;;5.60;100.00;102244.66;5068429;28;20367;-83
2024/02/20 03:33:18;;;;;;;;;;;;;;;;;;;;;
2024/02/20 03:36:01;;;;;;;47.92;13.80;;;;;;;5.66;100.00;102250.50;5067320;28;20558;-82
2024/02/20 03:38:37;;;;;;;48.97;15.40;;;;;;;5.66;100.00;102247.88;5060646;28;20052;-84
2024/02/20 03:41:09;;;;;;;38.97;12.98;;;;;;;5.71;100.00;102253.78;5060576;28;20303;-82
2024/02/20 03:43:38;;;;;;;36.88;13.50;;;;;;;5.71;100.00;102252.94;5060164;28;20068;-83
2024/02/20 03:46:06;;;;;;;40.75;13.63;;;;;;;5.65;100.00;102256.69;5076732;28;20511;-81
2024/02/20 03:48:33;;;;;;;44.63;13.65;;;;;;;5.68;100.00;102259.19;5051779;28;20045;-84
2024/02/20 03:51:00;;;;;;;41.85;13.85;;;;;;;5.73;100.00;102259.00;5067299;28;20143;-80
2024/02/20 03:53:28;;;;;;;39.88;13.35;;;;;;;5.72;100.00;102262.56;5052703;28;20107;-83
2024/02/20 03:55:55;;;;;;;41.95;14.95;;;;;;;5.68;100.00;102253.09;5049059;28;20049;-80
2024/02/20 03:58:24;;;;;;;57.20;17.42;;;;;;;5.69;100.00;102260.03;5060221;28;20117;-82
2024/02/20 04:00:52;;;;;;;47.95;17.92;;;;;;;5.74;100.00;102263.31;5071688;28;20080;-81
2024/02/20 04:03:19;;;;;;;46.75;16.45;;;;;;;5.73;100.00;102262.47;5057466;28;20046;-82
2024/02/20 04:05:54;;;;;;;42.42;15.10;;;;;;;5.78;100.00;102265.75;5065201;28;20110;-82
2024/02/20 04:08:24;;;;;;;44.00;14.68;;;;;;;5.78;100.00;102259.66;5066459;28;20088;-82
2024/02/20 04:10:52;;;;;;;49.53;15.65;;;;;;;5.80;100.00;102265.69;5060408;28;20414;-81
2024/02/20 04:13:18;;;;;;;43.78;14.10;;;;;;;5.75;100.00;102267.66;5060964;28;20084;-82
2024/02/20 04:15:50;;;;;;;44.45;15.20;;;;;;;5.73;100.00;102272.13;5049999;28;20148;-83
2024/02/20 04:18:22;;;;;;;47.47;18.02;;;;;;;5.70;100.00;102273.09;5042579;28;20091;-83
2024/02/20 04:20:48;;;;;;;35.70;15.02;;;;;;;5.59;100.00;102267.44;5042010;28;20065;-82
2024/02/20 04:23:15;;;;;;;43.70;14.80;;;;;;;5.53;100.00;102260.63;5062954;28;20033;-84
2024/02/20 04:25:44;;;;;;;40.22;14.13;;;;;;;5.46;100.00;102264.44;5062866;28;20072;-82
2024/02/20 04:28:14;;;;;;;38.35;14.85;;;;;;;5.39;100.00;102262.13;5062819;28;20143;-82
2024/02/20 04:30:44;;;;;;;42.05;15.23;;;;;;;5.36;100.00;102264.84;5054886;28;20048;-82
2024/02/20 04:33:13;;;;;;;47.75;14.48;;;;;;;5.29;100.00;102267.72;5060024;28;20041;-80
2024/02/20 04:35:44;;;;;;;40.50;14.88;;;;;;;5.38;100.00;102261.25;5062016;28;20525;-81
2024/02/20 04:38:13;;;;;;;40.97;16.23;;;;;;;5.43;100.00;102263.69;5065943;28;20075;-81
2024/02/20 04:40:40;;;;;;;52.10;16.45;;;;;;;5.45;100.00;102267.16;5044230;28;20056;-82
2024/02/20 04:43:15;;;;;;;48.05;17.25;;;;;;;5.45;100.00;102257.50;5072103;28;20049;-83
2024/02/20 04:45:42;;;;;;;49.95;17.23;;;;;;;5.40;100.00;102274.31;5073436;28;20048;-81
2024/02/20 04:48:11;;;;;;;42.58;15.85;;;;;;;5.45;100.00;102268.00;5042283;28;20097;-82
2024/02/20 04:50:38;;;;;;;38.13;15.90;;;;;;;5.50;100.00;102268.66;5065690;28;20053;-82
2024/02/20 04:53:11;;;;;;;49.38;17.65;;;;;;;5.46;100.00;102272.31;5053686;28;20045;-82
2024/02/20 04:55:37;;;;;;;;;;;;;;;5.44;100.00;102268.03;5063443;28;20056;-82
2024/02/20 04:58:09;;;;;;;41.30;17.35;;;;;;;5.50;100.00;102258.16;5069666;28;19920;-83
2024/02/20 05:00:44;;;;;;;52.50;17.77;;;;;;;5.50;100.00;102265.19;5060950;28;20437;-81
2024/02/20 05:03:17;;;;;;;63.70;18.23;;;;;;;5.43;100.00;102264.56;5053272;28;20052;-81
2024/02/20 05:05:56;;;;;;;;;;;;;;;5.42;100.00;102268.09;5062062;28;20122;-81
2024/02/20 05:08:31;;;;;;;47.50;18.58;;;;;;;5.46;100.00;102268.84;5055134;28;20036;-81
2024/02/20 05:11:04;;;;;;;47.45;19.02;;;;;;;5.41;100.00;102269.03;5063966;28;20056;-82
2024/02/20 05:13:33;;;;;;;50.15;18.27;;;;;;;5.51;100.00;102272.13;5065526;28;20055;-80
2024/02/20 05:16:00;;;;;;;52.72;18.00;;;;;;;5.53;100.00;102265.88;5053459;28;20131;-80
2024/02/20 05:18:31;;;;;;;46.92;18.90;;;;;;;5.50;100.00;102263.41;5052677;28;20071;-83
2024/02/20 05:21:11;;;;;;;46.53;18.70;;;;;;;5.49;100.00;102268.69;5058872;28;20064;-83
2024/02/20 05:23:45;;;;;;;51.50;19.60;;;;;;;5.40;100.00;102263.81;5049193;28;20072;-82
2024/02/20 05:26:16;;;;;;;51.55;18.42;;;;;;;5.35;100.00;102269.25;5051973;28;20061;-81
2024/02/20 05:28:48;;;;;;;48.67;17.15;;;;;;;5.31;100.00;102267.66;5045641;28;20084;-81
2024/02/20 05:31:35;;;;;;;56.58;17.60;;;;;;;5.31;100.00;102263.28;5065218;28;20151;-81
2024/02/20 05:34:02;;;;;;;42.65;17.10;;;;;;;5.21;100.00;102267.16;5064671;28;20055;-81
2024/02/20 05:36:31;;;;;;;47.63;17.63;;;;;;;5.25;100.00;102273.16;5071327;28;20060;-79
2024/02/20 05:39:00;;;;;;;51.65;18.27;;;;;;;5.27;100.00;102266.09;5086375;28;20048;-82
2024/02/20 05:41:28;;;;;;;49.97;18.17;;;;;;;5.21;100.00;102268.94;5078254;28;20164;-81
2024/02/20 05:43:59;;;;;;;41.15;17.63;;;;;;;5.11;100.00;102263.19;5072183;28;20057;-82
2024/02/20 05:46:30;;;;;;;46.05;17.48;;;;;;;5.08;100.00;102255.44;5075365;28;20053;-81
2024/02/20 05:48:57;;;;;;;43.95;18.70;;;;;;;5.07;100.00;102266.84;5060048;28;20583;-81
2024/02/20 05:51:25;;;;;;;38.65;17.15;;;;;;;5.03;100.00;102267.88;5065544;28;20080;-81
2024/02/20 05:53:52;;;;;;;46.38;18.17;;;;;;;5.02;100.00;102258.28;5080615;28;20386;-80
2024/02/20 05:56:20;;;;;;;45.15;17.70;;;;;;;4.95;100.00;102265.53;5080896;28;20049;-80
2024/02/20 05:58:47;;;;;;;44.90;18.50;;;;;;;4.94;100.00;102269.06;5081280;28;20048;-80
2024/02/20 06:01:15;;;;;;;44.20;17.08;;;;;;;4.92;100.00;102262.19;5075901;28;20057;-79
2024/02/20 06:03:43;;;;;;;46.90;16.73;;;;;;;4.87;100.00;102267.59;5068227;28;20079;-79
2024/02/20 06:06:10;;;;;;;55.80;17.70;;;;;;;4.88;100.00;102271.94;5077200;28;20048;-80
2024/02/20 06:08:40;;;;;;;43.78;17.25;;;;;;;4.89;100.00;102273.63;5067916;28;20075;-79
2024/02/20 06:11:07;;;;;;;48.80;16.58;;;;;;;4.87;100.00;102270.22;5080544;28;20102;-79
2024/02/20 06:13:35;;;;;;;39.78;17.20;;;;;;;4.84;100.00;102270.34;5080472;28;20498;-80
2024/02/20 06:16:02;;;;;;;38.33;16.02;;;;;;;4.86;100.00;102265.88;5070261;28;20112;-80
2024/02/20 06:18:28;;;;;;;44.40;15.63;;;;;;;4.89;100.00;102262.28;5060818;28;20059;-81
2024/02/20 06:20:55;;;;;;;46.60;16.70;;;;;;;4.84;100.00;102265.09;5060787;28;20053;-80
2024/02/20 06:23:21;;;;;;;45.90;16.75;;;;;;;4.82;100.00;102272.13;5055895;28;20105;-80
2024/02/20 06:25:48;;;;;;;46.38;16.70;;;;;;;4.86;100.00;102265.88;5057251;28;20084;-79
2024/02/20 06:28:16;;;;;;;48.67;17.20;;;;;;;4.88;100.00;102271.94;5051117;28;20140;-81
2024/02/20 06:30:47;;;;;;;40.78;15.93;;;;;;;4.89;100.00;102284.13;5060148;28;20106;-81
2024/02/20 06:33:13;;;;;;;38.45;17.05;;;;;;;4.85;100.00;102277.28;5040125;28;20046;-80
2024/02/20 06:35:41;;;;;;;32.50;16.08;;;;;;;4.86;100.00;102284.22;5056138;28;20135;-82
2024/02/20 06:38:08;;;;;;;44.30;16.30;;;;;;;4.95;100.00;102283.88;5060458;28;20049;-80
2024/02/20 06:40:35;;;;;;;49.20;17.25;;;;;;;5.07;100.00;102285.22;5063767;28;20084;-81
2024/02/20 06:43:02;;;;;;;41.22;15.85;;;;;;;5.07;100.00;102283.44;5063471;28;20122;-82
2024/02/20 06:45:28;;;;;;;47.88;16.45;;;;;;;5.07;100.00;102293.94;5081181;28;20078;-82
2024/02/20 06:47:57;;;;;;;42.05;15.90;;;;;;;5.17;100.00;102290.97;5064748;28;20515;-80
2024/02/20 06:50:23;;;;;;;39.65;15.05;;;;;;;5.19;100.00;102302.28;5062595;28;20071;-81
2024/02/20 06:52:50;;;;;;;49.67;16.40;;;;;;;5.22;100.00;102302.13;5064141;28;20049;-81
2024/02/20 06:55:17;;;;;;;47.88;15.48;;;;;;;5.28;100.00;102294.03;5052104;28;20076;-81
2024/02/20 06:58:04;;;;;;;;;;;;;;;;;;;;;
2024/02/20 07:00:31;;;;;;;43.13;15.40;;;;;;;5.44;100.00;102294.28;5061241;28;20108;-80
2024/02/20 07:02:59;;;;;;;41.63;16.23;;;;;;;5.49;100.00;102305.47;5060813;28;20064;-80
2024/02/20 07:05:26;;;;;;;38.63;16.30;;;;;;;5.58;100.00;102295.47;5059786;28;20407;-82
2024/02/20 07:07:53;;;;;;;39.47;17.20;;;;;;;5.68;100.00;102289.84;5060200;28;20053;-82
2024/02/20 07:10:20;;;;;;;49.20;17.50;;;;;;;5.69;100.00;102292.41;5060743;28;20104;-81
2024/02/20 07:12:46;;;;;;;49.40;17.58;;;;;;;5.71;100.00;102284.44;5061181;28;20053;-81
2024/02/20 07:15:13;;;;;;;49.60;16.13;;;;;;;5.78;100.00;102293.81;5064549;28;20422;-81
2024/02/20 07:17:40;;;;;;;50.35;19.52;;;;;;;5.84;100.00;102293.56;5068072;28;20049;-81
2024/02/20 07:20:11;;;;;;;49.05;16.58;;;;;;;5.96;100.00;102289.59;5081490;28;20079;-81
2024/02/20 07:22:38;;;;;;;40.15;15.43;;;;;;;5.97;100.00;102292.16;5071845;28;20075;-81
2024/02/20 07:25:06;;;;;;;50.90;16.33;;;;;;;6.08;99.99;102300.47;5060794;28;20525;-81
2024/02/20 07:27:32;;;;;;;40.08;18.17;;;;;;;6.15;99.96;102292.31;5063811;28;20057;-82
2024/02/20 07:29:59;;;;;;;49.03;17.13;;;;;;;6.21;98.69;102292.94;5060234;28;20044;-81
2024/02/20 07:32:26;;;;;;;44.20;18.23;;;;;;;6.24;98.96;102289.28;5060501;28;20406;-81
2024/02/20 07:34:52;;;;;;;48.72;18.80;;;;;;;6.26;98.45;102300.63;5059330;28;20059;-83
2024/02/20 07:37:20;;;;;;;51.33;19.13;;;;;;;6.30;98.57;102296.94;5067095;28;20060;-82
2024/02/20 07:39:47;;;;;;;43.28;17.98;;;;;;;6.38;97.65;102291.34;5056966;28;20109;-82
2024/02/20 07:42:14;;;;;;;48.15;18.52;;;;;;;6.48;97.36;102293.50;5063543;28;20052;-81
2024/02/20 07:44:41;;;;;;;41.10;18.98;;;;;;;6.47;96.74;102293.56;5067980;28;20105;-77
2024/02/20 07:47:07;;;;;;;47.58;20.70;;;;;;;6.55;96.23;102297.56;5075455;28;20202;-79
2024/02/20 07:49:34;;;;;;;42.20;19.35;;;;;;;6.63;95.26;102301.66;5066477;28;20552;-78
2024/02/20 07:52:01;;;;;;;46.22;18.77;;;;;;;6.72;95.85;102295.97;5061357;28;20499;-78
2024/02/20 07:54:31;;;;;;;47.47;19.92;;;;;;;6.74;94.86;102292.38;5057426;28;20053;-81
2024/02/20 07:56:57;;;;;;;48.15;19.77;;;;;;;6.72;95.21;102293.34;5067570;28;20089;-80
2024/02/20 07:59:24;;;;;;;49.08;18.67;;;;;;;6.79;94.28;102297.44;5057760;28;20136;-78
2024/02/20 08:01:52;;;;;;;43.17;17.33;;;;;;;6.78;93.94;102291.28;5059356;28;20140;-79
2024/02/20 08:04:19;;;;;;;49.38;18.40;;;;;;;6.89;93.49;102298.72;5058791;28;20041;-78
2024/02/20 08:06:45;;;;;;;47.05;17.70;;;;;;;6.92;93.23;102295.94;5059013;28;20057;-78
2024/02/20 08:09:12;;;;;;;43.28;17.70;;;;;;;6.92;93.05;102306.47;5077296;28;20131;-78
2024/02/20 08:11:41;;;;;;;51.97;18.55;;;;;;;6.95;92.94;102308.94;5070222;28;20522;-77
2024/02/20 08:14:09;;;;;;;48.30;18.55;;;;;;;6.96;92.93;102313.28;5083845;28;20040;-78
2024/02/20 08:16:36;;;;;;;43.10;18.27;;;;;;;7.01;93.05;102319.22;5078521;28;20049;-79
2024/02/20 08:19:03;;;;;;;47.20;19.60;;;;;;;6.92;93.79;102311.75;5062297;28;20137;-81
2024/02/20 08:21:30;;;;;;;49.25;19.77;;;;;;;7.08;92.61;102315.38;5068415;28;20108;-79
2024/02/20 08:23:58;;;;;;;44.20;19.08;;;;;;;7.02;93.07;102310.41;5062745;28;20200;-79
2024/02/20 08:26:25;;;;;;;50.17;19.73;;;;;;;7.15;93.25;102310.69;5073790;28;20108;-78
2024/02/20 08:28:53;;;;;;;48.13;19.80;;;;;;;7.17;92.59;102316.72;5081523;28;20140;-79
2024/02/20 08:31:22;;;;;;;46.65;20.67;;;;;;;7.22;93.23;102312.09;5086785;28;20076;-82
2024/02/20 08:33:49;;;;;;;53.42;20.70;;;;;;;7.31;92.47;102318.72;5092277;28;20052;-80
2024/02/20 08:36:17;;;;;;;40.65;19.40;;;;;;;7.36;91.81;102314.09;5068874;28;20092;-81
2024/02/20 08:38:44;;;;;;;50.65;20.70;;;;;;;7.39;91.85;102313.94;5073128;28;20072;-81
2024/02/20 08:41:11;;;;;;;52.28;19.35;;;;;;;7.46;91.30;102318.00;5074175;28;20075;-81
2024/02/20 08:43:37;;;;;;;42.85;21.00;;;;;;;7.49;91.25;102315.22;5080462;28;20083;-80
2024/02/20 08:46:06;;;;;;;42.55;19.02;;;;;;;7.53;91.33;102315.94;5079053;28;20052;-83
2024/02/20 08:48:33;;;;;;;46.38;19.95;;;;;;;7.55;91.25;102320.22;5072039;28;20059;-81
2024/02/20 08:50:59;;;;;;;43.85;20.52;;;;;;;7.65;91.96;102320.63;5080205;28;20133;-82
2024/02/20 08:53:26;;;;;;;52.08;19.95;;;;;;;7.83;90.81;102324.16;5076074;28;20063;-81
2024/02/20 08:55:53;;;;;;;53.28;20.80;;;;;;;7.89;90.01;102312.44;5062442;28;20121;-82
2024/02/20 08:58:20;;;;;;;53.53;20.90;;;;;;;7.95;89.81;102328.84;5072642;28;20143;-81
2024/02/20 09:00:47;;;;;;;46.90;21.23;;;;;;;7.92;89.65;102323.69;5077041;28;20070;-81
2024/02/20 09:03:15;;;;;;;60.58;20.95;;;;;;;8.03;89.42;102324.00;5080972;28;20084;-82
2024/02/20 09:05:41;;;;;;;45.15;19.70;;;;;;;8.13;88.77;102326.22;5065763;28;20076;-82
2024/02/20 09:08:08;;;;;;;44.28;20.33;;;;;;;8.20;89.09;102332.88;5056586;28;20486;-82
2024/02/20 09:10:35;;;;;;;50.50;20.65;;;;;;;8.26;88.46;102330.81;5073884;28;20052;-80
2024/02/20 09:13:02;;;;;;;42.50;19.15;;;;;;;8.40;87.26;102327.50;5080779;28;20056;-82
2024/02/20 09:15:28;;;;;;;47.92;19.23;;;;;;;8.48;88.33;102327.06;5081866;28;20131;-81
2024/02/20 09:17:55;;;;;;;44.03;19.88;;;;;;;8.64;87.23;102327.16;5081256;28;20541;-82
2024/02/20 09:20:23;;;;;;;41.33;19.48;;;;;;;8.59;86.37;102325.59;5081983;28;20095;-84
2024/02/20 09:22:49;;;;;;;40.22;18.40;;;;;;;8.58;86.54;102321.25;5081844;28;20202;-80
2024/02/20 09:25:16;;;;;;;43.92;20.00;;;;;;;8.70;86.82;102329.47;5082577;28;20071;-82
2024/02/20 09:27:42;;;;;;;46.22;20.23;;;;;;;8.70;85.73;102322.38;5082073;28;20075;-80
2024/02/20 09:30:10;;;;;;;46.58;18.45;;;;;;;8.65;85.96;102321.78;5070993;28;20049;-82
2024/02/20 09:32:37;;;;;;;46.92;20.27;;;;;;;8.71;86.34;102318.00;5063581;28;20083;-81
2024/02/20 09:35:04;;;;;;;38.97;19.80;;;;;;;8.74;86.02;102316.03;5063007;28;20100;-82
2024/02/20 09:37:32;;;;;;;42.33;18.77;;;;;;;8.76;86.25;102330.00;5062696;28;20055;-82
2024/02/20 09:40:01;;;;;;;40.60;18.90;;;;;;;8.72;85.95;102324.97;5062844;28;20112;-80
2024/02/20 09:42:31;;;;;;;45.22;18.58;;;;;;;8.73;85.38;102338.06;5062601;28;20057;-79
2024/02/20 09:44:58;;;;;;;48.97;19.02;;;;;;;8.75;85.76;102333.59;5063786;28;20239;-81
2024/02/20 09:47:27;;;;;;;45.13;19.20;;;;;;;8.80;85.95;102333.34;5069159;28;20087;-80
2024/02/20 09:49:55;;;;;;;41.45;19.15;;;;;;;8.79;86.35;102331.63;5063392;28;20053;-83
2024/02/20 09:52:21;;;;;;;40.58;17.95;;;;;;;8.99;85.18;102328.78;5054800;28;20445;-83
2024/02/20 09:54:50;;;;;;;37.97;19.33;;;;;;;9.05;84.92;102331.09;5054680;28;20041;-80
2024/02/20 09:57:17;;;;;;;42.55;18.42;;;;;;;9.17;83.82;102329.59;5061057;28;20056;-79
2024/02/20 09:59:47;;;;;;;46.13;17.77;;;;;;;9.20;83.83;102329.44;5068687;28;20049;-83
2024/02/20 10:02:19;;;;;;;79.63;20.73;;;;;;;9.30;82.80;102321.84;5070943;28;20064;-80
2024/02/20 10:04:47;;;;;;;43.15;18.38;;;;;;;9.42;82.72;102318.53;5050496;28;20045;-82
2024/02/20 10:07:16;;;;;;;38.05;17.13;;;;;;;9.48;82.46;102318.19;5040728;28;20080;-81
2024/02/20 10:09:43;;;;;;;49.67;17.42;;;;;;;9.38;83.04;102321.44;5040060;28;20053;-81
2024/02/20 10:12:23;;;;;;;72.88;18.65;;;;;;;9.45;82.29;102328.06;5051169;28;20080;-81
2024/02/20 10:14:49;;;;;;;36.22;16.98;;;;;;;9.38;82.74;102327.56;5077382;28;20048;-80
2024/02/20 10:17:17;;;;;;;38.63;16.90;;;;;;;9.38;82.94;102324.91;5080198;28;20044;-82
2024/02/20 10:19:44;;;;;;;37.55;16.75;;;;;;;9.47;82.27;102319.13;5062936;28;20156;-82
2024/02/20 10:22:11;;;;;;;33.53;16.98;;;;;;;9.39;82.85;102316.06;5059083;28;20113;-80
2024/02/20 10:24:38;;;;;;;61.65;20.38;;;;;;;9.40;82.52;102323.03;5075588;28;20048;-80
2024/02/20 10:27:05;;;;;;;90.43;22.45;;;;;;;9.44;82.22;102316.66;5069738;28;20064;-82
2024/02/20 10:29:33;;;;;;;41.47;17.55;;;;;;;9.45;82.06;102322.78;5061405;28;20123;-82
2024/02/20 10:32:00;;;;;;;39.20;18.75;;;;;;;9.35;82.09;102322.44;5070296;28;20052;-81
2024/02/20 10:34:26;;;;;;;45.03;18.15;;;;;;;9.45;82.35;102320.13;5074035;28;20084;-82
2024/02/20 10:37:04;;;;;;;37.05;17.92;;;;;;;9.43;82.33;102322.88;5080882;28;20083;-80
2024/02/20 10:39:30;;;;;;;44.33;18.67;;;;;;;9.44;83.13;102319.28;5074652;28;20506;-81
2024/02/20 10:41:59;;;;;;;40.05;18.00;;;;;;;9.56;82.53;102313.31;5060532;28;20104;-81
2024/02/20 10:44:27;;;;;;;40.13;17.73;;;;;;;9.30;82.98;102316.56;5061086;28;20049;-83
2024/02/20 10:46:58;;;;;;;44.15;18.23;;;;;;;9.36;82.63;102317.06;5059183;28;20091;-82
2024/02/20 10:49:26;;;;;;;40.17;18.58;;;;;;;9.33;83.01;102316.38;5059002;28;20075;-83
2024/02/20 10:51:55;;;;;;;37.88;18.60;;;;;;;9.35;82.45;102314.50;5060163;28;20056;-80
2024/02/20 10:54:23;;;;;;;40.75;18.67;;;;;;;9.41;82.16;102322.09;5076202;28;20064;-82
2024/02/20 10:56:51;;;;;;;41.70;17.25;;;;;;;9.41;83.01;102324.72;5073444;28;20076;-83
2024/02/20 10:59:18;;;;;;;40.15;17.73;;;;;;;9.43;82.91;102312.31;5076647;28;20045;-82
2024/02/20 11:01:45;;;;;;;40.17;18.83;;;;;;;9.54;82.68;102317.81;5059704;28;20566;-82
2024/02/20 11:04:13;;;;;;;43.50;18.35;;;;;;;9.48;82.86;102310.25;5060231;28;20080;-82
2024/02/20 11:06:41;;;;;;;40.08;16.85;;;;;;;9.59;82.07;102302.56;5060409;28;20073;-82
2024/02/20 11:09:11;;;;;;;42.35;17.50;;;;;;;9.69;81.68;102296.75;5060576;28;20052;-82
2024/02/20 11:11:38;;;;;;;39.88;17.85;;;;;;;9.76;81.75;102292.81;5075459;28;20537;-80
2024/02/20 11:14:04;;;;;;;43.95;17.55;;;;;;;9.79;81.08;102285.56;5071142;28;20088;-82
2024/02/20 11:16:35;;;;;;;30.85;14.52;;;;;;;9.83;80.32;102275.69;5072313;28;20087;-81
2024/02/20 11:19:03;;;;;;;35.00;16.10;;;;;;;9.88;80.45;102276.25;5077576;28;20495;-82
2024/02/20 11:21:32;;;;;;;38.33;14.45;;;;;;;9.85;79.31;102273.78;5073138;28;20075;-84
2024/02/20 11:24:11;;;;;;;35.50;13.77;;;;;;;9.87;80.10;102264.84;5078992;28;20049;-81
2024/02/20 11:26:38;;;;;;;32.33;12.88;;;;;;;10.00;78.32;102266.75;5080097;28;20064;-82
2024/02/20 11:29:05;;;;;;;32.00;14.45;;;;;;;9.99;77.52;102263.25;5070240;28;20465;-82
2024/02/20 11:31:32;;;;;;;28.40;10.55;;;;;;;10.05;76.88;102254.97;5060347;28;20049;-80
2024/02/20 11:34:00;;;;;;;26.45;10.68;;;;;;;9.98;77.63;102253.63;5062208;28;20045;-83
2024/02/20 11:36:26;;;;;;;25.00;11.07;;;;;;;10.13;75.73;102255.38;5059063;28;20514;-80
2024/02/20 11:39:06;;;;;;;28.88;10.00;;;;;;;10.07;75.51;102244.28;5058985;28;20049;-83
2024/02/20 11:41:33;;;;;;;27.38;10.60;;;;;;;10.03;74.04;102250.69;5058794;28;20486;-82
2024/02/20 11:44:02;;;;;;;25.80;8.85;;;;;;;10.01;75.31;102250.81;5058912;28;20124;-80
2024/02/20 11:46:28;;;;;;;32.58;9.02;;;;;;;10.00;73.64;102254.41;5060768;28;20049;-82